sensor_id;sensor_type;location;lat;lon;timestamp;P1;durP1;ratioP1;P2;durP2;ratioP2
78402;SDS011;67687;43.508;1.504;2023-07-08T00:00:10;4.97;;;2.53;;
78402;SDS011;67687;43.508;1.504;2023-07-08T00:02:39;6.30;;;2.67;;
78402;SDS011;67687;43.508;1.504;2023-07-08T00:05:07;5.40;;;2.15;;
78402;SDS011;67687;43.508;1.504;2023-07-08T00:07:35;5.73;;;2.33;;
78402;SDS011;67687;43.508;1.504;2023-07-08T00:10:01;5.55;;;2.50;;
78402;SDS011;67687;43.508;1.504;2023-07-08T00:12:31;9.75;;;2.80;;
78402;SDS011;67687;43.508;1.504;2023-07-08T00:14:58;5.82;;;3.08;;
78402;SDS011;67687;43.508;1.504;2023-07-08T00:17:24;5.68;;;2.65;;
78402;SDS011;67687;43.508;1.504;2023-07-08T00:19:53;7.90;;;3.17;;
78402;SDS011;67687;43.508;1.504;2023-07-08T00:22:20;7.30;;;3.08;;
78402;SDS011;67687;43.508;1.504;2023-07-08T00:24:47;7.72;;;3.63;;
78402;SDS011;67687;43.508;1.504;2023-07-08T00:27:14;9.27;;;3.90;;
78402;SDS011;67687;43.508;1.504;2023-07-08T00:29:41;7.53;;;3.78;;
78402;SDS011;67687;43.508;1.504;2023-07-08T00:32:12;7.80;;;4.10;;
78402;SDS011;67687;43.508;1.504;2023-07-08T00:34:40;7.82;;;3.75;;
78402;SDS011;67687;43.508;1.504;2023-07-08T00:37:09;7.57;;;3.63;;
78402;SDS011;67687;43.508;1.504;2023-07-08T00:39:37;8.70;;;3.75;;
78402;SDS011;67687;43.508;1.504;2023-07-08T00:42:06;10.02;;;4.35;;
78402;SDS011;67687;43.508;1.504;2023-07-08T00:44:38;9.53;;;4.53;;
78402;SDS011;67687;43.508;1.504;2023-07-08T00:47:08;8.45;;;4.30;;
78402;SDS011;67687;43.508;1.504;2023-07-08T00:49:37;10.48;;;4.20;;
78402;SDS011;67687;43.508;1.504;2023-07-08T00:55:00;9.38;;;4.20;;
78402;SDS011;67687;43.508;1.504;2023-07-08T00:57:33;8.07;;;4.23;;
78402;SDS011;67687;43.508;1.504;2023-07-08T01:00:02;10.55;;;4.65;;
78402;SDS011;67687;43.508;1.504;2023-07-08T01:02:31;8.45;;;4.65;;
78402;SDS011;67687;43.508;1.504;2023-07-08T01:05:01;9.73;;;5.00;;
78402;SDS011;67687;43.508;1.504;2023-07-08T01:07:32;8.90;;;4.18;;
78402;SDS011;67687;43.508;1.504;2023-07-08T01:10:01;10.97;;;4.70;;
78402;SDS011;67687;43.508;1.504;2023-07-08T01:12:30;10.35;;;4.90;;
78402;SDS011;67687;43.508;1.504;2023-07-08T01:14:59;9.45;;;4.95;;
78402;SDS011;67687;43.508;1.504;2023-07-08T01:17:28;7.75;;;4.55;;
78402;SDS011;67687;43.508;1.504;2023-07-08T01:19:57;10.90;;;4.90;;
78402;SDS011;67687;43.508;1.504;2023-07-08T01:22:26;9.23;;;4.73;;
78402;SDS011;67687;43.508;1.504;2023-07-08T01:24:57;10.02;;;5.20;;
78402;SDS011;67687;43.508;1.504;2023-07-08T01:27:28;11.93;;;5.00;;
78402;SDS011;67687;43.508;1.504;2023-07-08T01:29:56;8.93;;;5.00;;
78402;SDS011;67687;43.508;1.504;2023-07-08T01:32:23;8.27;;;5.00;;
78402;SDS011;67687;43.508;1.504;2023-07-08T01:34:50;8.03;;;4.30;;
78402;SDS011;67687;43.508;1.504;2023-07-08T01:37:31;9.57;;;4.85;;
78402;SDS011;67687;43.508;1.504;2023-07-08T01:40:13;7.50;;;4.65;;
78402;SDS011;67687;43.508;1.504;2023-07-08T01:42:50;9.70;;;4.65;;
78402;SDS011;67687;43.508;1.504;2023-07-08T01:45:18;9.52;;;5.05;;
78402;SDS011;67687;43.508;1.504;2023-07-08T01:47:46;10.63;;;4.90;;
78402;SDS011;67687;43.508;1.504;2023-07-08T01:50:15;7.95;;;4.55;;
78402;SDS011;67687;43.508;1.504;2023-07-08T01:52:44;9.18;;;5.00;;
78402;SDS011;67687;43.508;1.504;2023-07-08T01:55:10;10.02;;;4.70;;
78402;SDS011;67687;43.508;1.504;2023-07-08T01:57:37;8.77;;;4.80;;
78402;SDS011;67687;43.508;1.504;2023-07-08T02:00:04;8.60;;;3.90;;
78402;SDS011;67687;43.508;1.504;2023-07-08T02:02:32;12.02;;;4.80;;
78402;SDS011;67687;43.508;1.504;2023-07-08T02:04:58;11.57;;;5.05;;
78402;SDS011;67687;43.508;1.504;2023-07-08T02:07:25;8.77;;;5.10;;
78402;SDS011;67687;43.508;1.504;2023-07-08T02:09:53;10.25;;;5.03;;
78402;SDS011;67687;43.508;1.504;2023-07-08T02:12:20;12.57;;;5.13;;
78402;SDS011;67687;43.508;1.504;2023-07-08T02:14:46;8.90;;;5.30;;
78402;SDS011;67687;43.508;1.504;2023-07-08T02:17:13;11.38;;;4.95;;
78402;SDS011;67687;43.508;1.504;2023-07-08T02:19:42;12.98;;;5.07;;
78402;SDS011;67687;43.508;1.504;2023-07-08T02:22:08;11.50;;;5.75;;
78402;SDS011;67687;43.508;1.504;2023-07-08T02:24:35;11.27;;;4.90;;
78402;SDS011;67687;43.508;1.504;2023-07-08T02:27:04;11.63;;;5.38;;
78402;SDS011;67687;43.508;1.504;2023-07-08T02:29:31;9.38;;;5.15;;
78402;SDS011;67687;43.508;1.504;2023-07-08T02:31:58;10.13;;;4.85;;
78402;SDS011;67687;43.508;1.504;2023-07-08T02:34:24;7.68;;;4.80;;
78402;SDS011;67687;43.508;1.504;2023-07-08T02:36:51;9.50;;;5.20;;
78402;SDS011;67687;43.508;1.504;2023-07-08T02:39:18;11.43;;;5.28;;
78402;SDS011;67687;43.508;1.504;2023-07-08T02:41:45;9.98;;;5.20;;
78402;SDS011;67687;43.508;1.504;2023-07-08T02:44:13;11.52;;;4.47;;
78402;SDS011;67687;43.508;1.504;2023-07-08T02:46:40;9.15;;;4.93;;
78402;SDS011;67687;43.508;1.504;2023-07-08T02:49:06;9.33;;;5.10;;
78402;SDS011;67687;43.508;1.504;2023-07-08T02:51:33;8.75;;;5.00;;
78402;SDS011;67687;43.508;1.504;2023-07-08T02:54:00;10.02;;;5.20;;
78402;SDS011;67687;43.508;1.504;2023-07-08T02:56:27;8.77;;;5.10;;
78402;SDS011;67687;43.508;1.504;2023-07-08T02:58:54;12.93;;;5.45;;
78402;SDS011;67687;43.508;1.504;2023-07-08T03:01:22;11.77;;;4.60;;
78402;SDS011;67687;43.508;1.504;2023-07-08T03:03:51;11.18;;;5.18;;
78402;SDS011;67687;43.508;1.504;2023-07-08T03:06:19;11.90;;;4.90;;
78402;SDS011;67687;43.508;1.504;2023-07-08T03:08:46;8.52;;;4.57;;
78402;SDS011;67687;43.508;1.504;2023-07-08T03:11:13;9.43;;;5.15;;
78402;SDS011;67687;43.508;1.504;2023-07-08T03:13:40;9.33;;;5.10;;
78402;SDS011;67687;43.508;1.504;2023-07-08T03:16:07;9.00;;;4.53;;
78402;SDS011;67687;43.508;1.504;2023-07-08T03:18:38;11.25;;;4.93;;
78402;SDS011;67687;43.508;1.504;2023-07-08T03:21:11;9.95;;;5.05;;
78402;SDS011;67687;43.508;1.504;2023-07-08T03:23:38;8.23;;;4.82;;
78402;SDS011;67687;43.508;1.504;2023-07-08T03:26:07;9.20;;;4.60;;
78402;SDS011;67687;43.508;1.504;2023-07-08T03:28:33;9.60;;;4.93;;
78402;SDS011;67687;43.508;1.504;2023-07-08T03:31:00;9.77;;;4.88;;
78402;SDS011;67687;43.508;1.504;2023-07-08T03:33:27;9.60;;;4.45;;
78402;SDS011;67687;43.508;1.504;2023-07-08T03:35:55;9.73;;;4.70;;
78402;SDS011;67687;43.508;1.504;2023-07-08T03:38:22;8.13;;;4.67;;
78402;SDS011;67687;43.508;1.504;2023-07-08T03:40:49;7.82;;;4.20;;
78402;SDS011;67687;43.508;1.504;2023-07-08T03:43:15;10.10;;;4.90;;
78402;SDS011;67687;43.508;1.504;2023-07-08T03:45:42;11.60;;;4.63;;
78402;SDS011;67687;43.508;1.504;2023-07-08T03:48:10;9.20;;;4.57;;
78402;SDS011;67687;43.508;1.504;2023-07-08T03:50:37;10.37;;;4.73;;
78402;SDS011;67687;43.508;1.504;2023-07-08T03:53:05;10.80;;;4.72;;
78402;SDS011;67687;43.508;1.504;2023-07-08T03:55:32;12.07;;;4.90;;
78402;SDS011;67687;43.508;1.504;2023-07-08T03:57:59;7.95;;;4.40;;
78402;SDS011;67687;43.508;1.504;2023-07-08T04:00:25;9.20;;;3.90;;
78402;SDS011;67687;43.508;1.504;2023-07-08T04:02:52;8.20;;;4.30;;
78402;SDS011;67687;43.508;1.504;2023-07-08T04:05:20;7.70;;;4.40;;
78402;SDS011;67687;43.508;1.504;2023-07-08T04:07:48;8.50;;;4.10;;
78402;SDS011;67687;43.508;1.504;2023-07-08T04:10:16;9.60;;;4.00;;
78402;SDS011;67687;43.508;1.504;2023-07-08T04:12:43;10.15;;;4.32;;
78402;SDS011;67687;43.508;1.504;2023-07-08T04:15:10;7.87;;;4.47;;
78402;SDS011;67687;43.508;1.504;2023-07-08T04:17:38;8.13;;;3.78;;
78402;SDS011;67687;43.508;1.504;2023-07-08T04:20:08;9.45;;;4.57;;
78402;SDS011;67687;43.508;1.504;2023-07-08T04:22:36;10.73;;;4.47;;
78402;SDS011;67687;43.508;1.504;2023-07-08T04:25:03;8.98;;;4.05;;
78402;SDS011;67687;43.508;1.504;2023-07-08T04:27:32;10.13;;;4.70;;
78402;SDS011;67687;43.508;1.504;2023-07-08T04:29:59;11.52;;;4.38;;
78402;SDS011;67687;43.508;1.504;2023-07-08T04:32:26;8.00;;;3.85;;
78402;SDS011;67687;43.508;1.504;2023-07-08T04:34:53;9.30;;;3.92;;
78402;SDS011;67687;43.508;1.504;2023-07-08T04:37:19;8.60;;;4.68;;
78402;SDS011;67687;43.508;1.504;2023-07-08T04:39:46;12.30;;;4.73;;
78402;SDS011;67687;43.508;1.504;2023-07-08T04:42:13;13.07;;;5.05;;
78402;SDS011;67687;43.508;1.504;2023-07-08T04:44:44;9.80;;;4.85;;
78402;SDS011;67687;43.508;1.504;2023-07-08T04:47:10;11.63;;;4.22;;
78402;SDS011;67687;43.508;1.504;2023-07-08T04:49:39;10.75;;;4.78;;
78402;SDS011;67687;43.508;1.504;2023-07-08T04:52:08;11.03;;;4.90;;
78402;SDS011;67687;43.508;1.504;2023-07-08T04:54:35;8.43;;;5.03;;
78402;SDS011;67687;43.508;1.504;2023-07-08T04:57:02;11.27;;;4.97;;
78402;SDS011;67687;43.508;1.504;2023-07-08T04:59:29;9.38;;;4.85;;
78402;SDS011;67687;43.508;1.504;2023-07-08T05:02:01;9.40;;;4.60;;
78402;SDS011;67687;43.508;1.504;2023-07-08T05:04:27;9.67;;;4.83;;
78402;SDS011;67687;43.508;1.504;2023-07-08T05:06:54;10.07;;;5.00;;
78402;SDS011;67687;43.508;1.504;2023-07-08T05:09:21;9.85;;;5.18;;
78402;SDS011;67687;43.508;1.504;2023-07-08T05:11:50;10.75;;;5.90;;
78402;SDS011;67687;43.508;1.504;2023-07-08T05:14:17;10.15;;;5.78;;
78402;SDS011;67687;43.508;1.504;2023-07-08T05:16:44;9.50;;;5.77;;
78402;SDS011;67687;43.508;1.504;2023-07-08T05:19:12;11.02;;;6.15;;
78402;SDS011;67687;43.508;1.504;2023-07-08T05:21:39;11.75;;;5.25;;
78402;SDS011;67687;43.508;1.504;2023-07-08T05:24:06;13.98;;;4.82;;
78402;SDS011;67687;43.508;1.504;2023-07-08T05:26:33;9.23;;;5.25;;
78402;SDS011;67687;43.508;1.504;2023-07-08T05:29:00;10.70;;;8.53;;
78402;SDS011;67687;43.508;1.504;2023-07-08T05:31:27;13.27;;;9.68;;
78402;SDS011;67687;43.508;1.504;2023-07-08T05:33:54;11.27;;;5.70;;
78402;SDS011;67687;43.508;1.504;2023-07-08T05:36:22;11.15;;;6.45;;
78402;SDS011;67687;43.508;1.504;2023-07-08T05:38:49;11.88;;;8.07;;
78402;SDS011;67687;43.508;1.504;2023-07-08T05:41:15;10.10;;;7.20;;
78402;SDS011;67687;43.508;1.504;2023-07-08T05:43:42;10.18;;;8.82;;
78402;SDS011;67687;43.508;1.504;2023-07-08T05:46:09;12.02;;;7.85;;
78402;SDS011;67687;43.508;1.504;2023-07-08T05:48:38;10.40;;;7.60;;
78402;SDS011;67687;43.508;1.504;2023-07-08T05:51:05;9.10;;;8.13;;
78402;SDS011;67687;43.508;1.504;2023-07-08T05:53:33;11.87;;;8.77;;
78402;SDS011;67687;43.508;1.504;2023-07-08T05:55:59;10.95;;;9.52;;
78402;SDS011;67687;43.508;1.504;2023-07-08T05:58:28;12.45;;;10.90;;
78402;SDS011;67687;43.508;1.504;2023-07-08T06:00:55;13.48;;;12.15;;
78402;SDS011;67687;43.508;1.504;2023-07-08T06:03:22;12.18;;;10.68;;
78402;SDS011;67687;43.508;1.504;2023-07-08T06:05:49;10.83;;;6.63;;
78402;SDS011;67687;43.508;1.504;2023-07-08T06:08:15;11.88;;;6.65;;
78402;SDS011;67687;43.508;1.504;2023-07-08T06:10:44;11.43;;;10.15;;
78402;SDS011;67687;43.508;1.504;2023-07-08T06:13:12;13.80;;;9.73;;
78402;SDS011;67687;43.508;1.504;2023-07-08T06:15:39;10.52;;;8.82;;
78402;SDS011;67687;43.508;1.504;2023-07-08T06:18:06;10.10;;;7.87;;
78402;SDS011;67687;43.508;1.504;2023-07-08T06:20:32;9.32;;;6.25;;
78402;SDS011;67687;43.508;1.504;2023-07-08T06:22:59;11.43;;;5.88;;
78402;SDS011;67687;43.508;1.504;2023-07-08T06:25:26;9.20;;;5.70;;
78402;SDS011;67687;43.508;1.504;2023-07-08T06:27:55;10.80;;;5.53;;
78402;SDS011;67687;43.508;1.504;2023-07-08T06:30:21;10.37;;;5.50;;
78402;SDS011;67687;43.508;1.504;2023-07-08T06:32:48;11.70;;;5.57;;
78402;SDS011;67687;43.508;1.504;2023-07-08T06:35:16;11.38;;;5.28;;
78402;SDS011;67687;43.508;1.504;2023-07-08T06:37:43;9.77;;;4.90;;
78402;SDS011;67687;43.508;1.504;2023-07-08T06:40:10;9.32;;;4.70;;
78402;SDS011;67687;43.508;1.504;2023-07-08T06:42:37;10.87;;;5.17;;
78402;SDS011;67687;43.508;1.504;2023-07-08T06:45:06;11.85;;;5.25;;
78402;SDS011;67687;43.508;1.504;2023-07-08T06:47:33;11.75;;;5.70;;
78402;SDS011;67687;43.508;1.504;2023-07-08T06:50:00;11.05;;;4.70;;
78402;SDS011;67687;43.508;1.504;2023-07-08T06:52:27;10.15;;;4.40;;
78402;SDS011;67687;43.508;1.504;2023-07-08T06:54:59;11.20;;;4.63;;
78402;SDS011;67687;43.508;1.504;2023-07-08T06:57:25;9.75;;;4.50;;
78402;SDS011;67687;43.508;1.504;2023-07-08T06:59:52;10.18;;;5.03;;
78402;SDS011;67687;43.508;1.504;2023-07-08T07:02:20;9.65;;;4.65;;
78402;SDS011;67687;43.508;1.504;2023-07-08T07:04:47;12.50;;;4.53;;
78402;SDS011;67687;43.508;1.504;2023-07-08T07:07:14;9.90;;;5.03;;
78402;SDS011;67687;43.508;1.504;2023-07-08T07:09:40;11.48;;;4.68;;
78402;SDS011;67687;43.508;1.504;2023-07-08T07:12:07;9.15;;;3.83;;
78402;SDS011;67687;43.508;1.504;2023-07-08T07:14:35;11.13;;;4.82;;
78402;SDS011;67687;43.508;1.504;2023-07-08T07:17:01;12.27;;;5.07;;
78402;SDS011;67687;43.508;1.504;2023-07-08T07:19:30;10.33;;;4.70;;
78402;SDS011;67687;43.508;1.504;2023-07-08T07:21:56;11.07;;;4.97;;
78402;SDS011;67687;43.508;1.504;2023-07-08T07:24:23;9.43;;;4.60;;
78402;SDS011;67687;43.508;1.504;2023-07-08T07:26:50;9.18;;;4.10;;
78402;SDS011;67687;43.508;1.504;2023-07-08T07:29:17;11.05;;;4.68;;
78402;SDS011;67687;43.508;1.504;2023-07-08T07:31:44;10.03;;;4.53;;
78402;SDS011;67687;43.508;1.504;2023-07-08T07:34:13;11.63;;;4.90;;
78402;SDS011;67687;43.508;1.504;2023-07-08T07:36:41;10.00;;;4.80;;
78402;SDS011;67687;43.508;1.504;2023-07-08T07:39:08;11.52;;;4.57;;
78402;SDS011;67687;43.508;1.504;2023-07-08T07:41:34;8.63;;;4.18;;
78402;SDS011;67687;43.508;1.504;2023-07-08T07:44:01;9.47;;;4.27;;
78402;SDS011;67687;43.508;1.504;2023-07-08T07:46:28;10.27;;;4.50;;
78402;SDS011;67687;43.508;1.504;2023-07-08T07:48:55;8.25;;;4.57;;
78402;SDS011;67687;43.508;1.504;2023-07-08T07:51:21;8.32;;;4.78;;
78402;SDS011;67687;43.508;1.504;2023-07-08T07:53:49;9.10;;;4.63;;
78402;SDS011;67687;43.508;1.504;2023-07-08T07:56:16;8.47;;;4.50;;
78402;SDS011;67687;43.508;1.504;2023-07-08T07:58:43;9.48;;;5.10;;
78402;SDS011;67687;43.508;1.504;2023-07-08T08:01:10;12.93;;;4.88;;
78402;SDS011;67687;43.508;1.504;2023-07-08T08:03:38;11.13;;;5.00;;
78402;SDS011;67687;43.508;1.504;2023-07-08T08:06:05;11.98;;;4.63;;
78402;SDS011;67687;43.508;1.504;2023-07-08T08:08:32;7.77;;;4.43;;
78402;SDS011;67687;43.508;1.504;2023-07-08T08:11:00;8.23;;;4.30;;
78402;SDS011;67687;43.508;1.504;2023-07-08T08:13:27;12.80;;;4.68;;
78402;SDS011;67687;43.508;1.504;2023-07-08T08:15:56;10.93;;;4.78;;
78402;SDS011;67687;43.508;1.504;2023-07-08T08:18:23;11.60;;;4.80;;
78402;SDS011;67687;43.508;1.504;2023-07-08T08:20:50;7.03;;;4.33;;
78402;SDS011;67687;43.508;1.504;2023-07-08T08:23:17;11.32;;;4.82;;
78402;SDS011;67687;43.508;1.504;2023-07-08T08:25:44;10.07;;;4.82;;
78402;SDS011;67687;43.508;1.504;2023-07-08T08:28:12;9.52;;;4.57;;
78402;SDS011;67687;43.508;1.504;2023-07-08T08:30:38;9.35;;;4.78;;
78402;SDS011;67687;43.508;1.504;2023-07-08T08:33:05;9.03;;;5.00;;
78402;SDS011;67687;43.508;1.504;2023-07-08T08:35:32;13.63;;;4.75;;
78402;SDS011;67687;43.508;1.504;2023-07-08T08:37:59;10.00;;;5.20;;
78402;SDS011;67687;43.508;1.504;2023-07-08T08:40:28;13.25;;;5.38;;
78402;SDS011;67687;43.508;1.504;2023-07-08T08:42:57;9.27;;;4.88;;
78402;SDS011;67687;43.508;1.504;2023-07-08T08:45:27;10.37;;;4.30;;
78402;SDS011;67687;43.508;1.504;2023-07-08T08:47:57;11.30;;;5.30;;
78402;SDS011;67687;43.508;1.504;2023-07-08T08:50:29;11.60;;;5.10;;
78402;SDS011;67687;43.508;1.504;2023-07-08T08:52:58;11.90;;;4.93;;
78402;SDS011;67687;43.508;1.504;2023-07-08T08:55:26;10.07;;;4.57;;
78402;SDS011;67687;43.508;1.504;2023-07-08T08:57:55;11.00;;;5.63;;
78402;SDS011;67687;43.508;1.504;2023-07-08T09:00:29;9.57;;;4.47;;
78402;SDS011;67687;43.508;1.504;2023-07-08T09:03:04;9.98;;;4.68;;
78402;SDS011;67687;43.508;1.504;2023-07-08T09:05:34;9.93;;;4.55;;
78402;SDS011;67687;43.508;1.504;2023-07-08T09:08:03;8.30;;;4.68;;
78402;SDS011;67687;43.508;1.504;2023-07-08T09:10:35;10.27;;;5.07;;
78402;SDS011;67687;43.508;1.504;2023-07-08T09:13:06;11.48;;;4.90;;
78402;SDS011;67687;43.508;1.504;2023-07-08T09:15:36;9.98;;;4.63;;
78402;SDS011;67687;43.508;1.504;2023-07-08T09:18:05;10.80;;;5.28;;
78402;SDS011;67687;43.508;1.504;2023-07-08T09:20:41;9.70;;;5.15;;
78402;SDS011;67687;43.508;1.504;2023-07-08T09:23:10;10.80;;;4.90;;
78402;SDS011;67687;43.508;1.504;2023-07-08T09:25:42;12.32;;;5.30;;
78402;SDS011;67687;43.508;1.504;2023-07-08T09:28:12;11.95;;;4.80;;
78402;SDS011;67687;43.508;1.504;2023-07-08T09:30:41;12.05;;;4.57;;
78402;SDS011;67687;43.508;1.504;2023-07-08T09:33:12;10.35;;;4.97;;
78402;SDS011;67687;43.508;1.504;2023-07-08T09:35:40;11.03;;;4.83;;
78402;SDS011;67687;43.508;1.504;2023-07-08T09:38:08;11.20;;;5.28;;
78402;SDS011;67687;43.508;1.504;2023-07-08T09:40:39;10.45;;;4.63;;
78402;SDS011;67687;43.508;1.504;2023-07-08T09:43:15;10.27;;;4.70;;
78402;SDS011;67687;43.508;1.504;2023-07-08T09:45:48;9.73;;;4.80;;
78402;SDS011;67687;43.508;1.504;2023-07-08T09:48:15;11.47;;;4.77;;
78402;SDS011;67687;43.508;1.504;2023-07-08T09:50:43;8.98;;;4.22;;
78402;SDS011;67687;43.508;1.504;2023-07-08T09:53:11;11.18;;;4.78;;
78402;SDS011;67687;43.508;1.504;2023-07-08T09:55:39;12.80;;;4.88;;
78402;SDS011;67687;43.508;1.504;2023-07-08T09:58:08;10.77;;;4.85;;
78402;SDS011;67687;43.508;1.504;2023-07-08T10:00:40;12.13;;;4.90;;
78402;SDS011;67687;43.508;1.504;2023-07-08T10:03:11;10.98;;;4.72;;
78402;SDS011;67687;43.508;1.504;2023-07-08T10:05:42;9.20;;;4.57;;
78402;SDS011;67687;43.508;1.504;2023-07-08T10:08:11;7.03;;;4.43;;
78402;SDS011;67687;43.508;1.504;2023-07-08T10:10:41;9.95;;;5.15;;
78402;SDS011;67687;43.508;1.504;2023-07-08T10:13:11;8.03;;;4.70;;
78402;SDS011;67687;43.508;1.504;2023-07-08T10:15:44;10.60;;;5.20;;
78402;SDS011;67687;43.508;1.504;2023-07-08T10:18:16;11.50;;;5.15;;
78402;SDS011;67687;43.508;1.504;2023-07-08T10:20:47;9.80;;;4.78;;
78402;SDS011;67687;43.508;1.504;2023-07-08T10:23:22;10.77;;;5.30;;
78402;SDS011;67687;43.508;1.504;2023-07-08T10:25:55;10.87;;;5.00;;
78402;SDS011;67687;43.508;1.504;2023-07-08T10:28:27;8.88;;;4.00;;
78402;SDS011;67687;43.508;1.504;2023-07-08T10:31:01;11.38;;;4.95;;
78402;SDS011;67687;43.508;1.504;2023-07-08T10:33:49;10.10;;;4.90;;
78402;SDS011;67687;43.508;1.504;2023-07-08T10:36:23;8.95;;;4.97;;
78402;SDS011;67687;43.508;1.504;2023-07-08T10:38:59;9.53;;;4.87;;
78402;SDS011;67687;43.508;1.504;2023-07-08T10:41:45;12.73;;;5.07;;
78402;SDS011;67687;43.508;1.504;2023-07-08T10:44:20;10.73;;;4.72;;
78402;SDS011;67687;43.508;1.504;2023-07-08T10:46:50;9.38;;;4.65;;
78402;SDS011;67687;43.508;1.504;2023-07-08T10:49:35;9.30;;;5.20;;
78402;SDS011;67687;43.508;1.504;2023-07-08T10:52:13;9.80;;;5.10;;
78402;SDS011;67687;43.508;1.504;2023-07-08T10:54:54;10.00;;;4.75;;
78402;SDS011;67687;43.508;1.504;2023-07-08T10:57:39;8.73;;;4.68;;
78402;SDS011;67687;43.508;1.504;2023-07-08T11:00:16;9.07;;;4.72;;
78402;SDS011;67687;43.508;1.504;2023-07-08T11:03:04;8.98;;;4.50;;
78402;SDS011;67687;43.508;1.504;2023-07-08T11:05:40;10.93;;;5.20;;
78402;SDS011;67687;43.508;1.504;2023-07-08T11:08:10;9.18;;;3.92;;
78402;SDS011;67687;43.508;1.504;2023-07-08T11:10:44;10.02;;;4.93;;
78402;SDS011;67687;43.508;1.504;2023-07-08T11:13:14;8.90;;;5.00;;
78402;SDS011;67687;43.508;1.504;2023-07-08T11:15:45;14.63;;;5.15;;
78402;SDS011;67687;43.508;1.504;2023-07-08T11:18:15;8.13;;;4.87;;
78402;SDS011;67687;43.508;1.504;2023-07-08T11:20:59;10.23;;;4.88;;
78402;SDS011;67687;43.508;1.504;2023-07-08T11:23:29;10.73;;;4.97;;
78402;SDS011;67687;43.508;1.504;2023-07-08T11:26:03;9.50;;;4.60;;
78402;SDS011;67687;43.508;1.504;2023-07-08T11:28:34;10.18;;;4.75;;
78402;SDS011;67687;43.508;1.504;2023-07-08T11:31:01;11.63;;;4.93;;
78402;SDS011;67687;43.508;1.504;2023-07-08T11:33:28;8.60;;;4.93;;
78402;SDS011;67687;43.508;1.504;2023-07-08T11:35:57;9.35;;;4.43;;
78402;SDS011;67687;43.508;1.504;2023-07-08T11:38:26;9.88;;;4.70;;
78402;SDS011;67687;43.508;1.504;2023-07-08T11:40:54;8.13;;;4.50;;
78402;SDS011;67687;43.508;1.504;2023-07-08T11:43:23;11.13;;;4.80;;
78402;SDS011;67687;43.508;1.504;2023-07-08T11:45:53;9.38;;;4.65;;
78402;SDS011;67687;43.508;1.504;2023-07-08T11:48:22;8.52;;;4.47;;
78402;SDS011;67687;43.508;1.504;2023-07-08T11:50:52;8.27;;;4.75;;
78402;SDS011;67687;43.508;1.504;2023-07-08T11:53:35;9.25;;;4.90;;
78402;SDS011;67687;43.508;1.504;2023-07-08T11:56:04;8.27;;;4.40;;
78402;SDS011;67687;43.508;1.504;2023-07-08T11:58:57;7.80;;;4.88;;
78402;SDS011;67687;43.508;1.504;2023-07-08T12:01:26;9.25;;;4.60;;
78402;SDS011;67687;43.508;1.504;2023-07-08T12:03:54;7.30;;;4.53;;
78402;SDS011;67687;43.508;1.504;2023-07-08T12:06:41;9.82;;;4.20;;
78402;SDS011;67687;43.508;1.504;2023-07-08T12:09:25;10.57;;;4.60;;
78402;SDS011;67687;43.508;1.504;2023-07-08T12:11:53;9.95;;;5.47;;
78402;SDS011;67687;43.508;1.504;2023-07-08T12:14:22;7.93;;;4.40;;
78402;SDS011;67687;43.508;1.504;2023-07-08T12:16:49;9.80;;;4.57;;
78402;SDS011;67687;43.508;1.504;2023-07-08T12:19:16;9.07;;;4.22;;
78402;SDS011;67687;43.508;1.504;2023-07-08T12:21:44;9.03;;;4.23;;
78402;SDS011;67687;43.508;1.504;2023-07-08T12:24:12;7.45;;;4.22;;
78402;SDS011;67687;43.508;1.504;2023-07-08T12:26:41;9.85;;;4.57;;
78402;SDS011;67687;43.508;1.504;2023-07-08T12:29:08;9.07;;;4.63;;
78402;SDS011;67687;43.508;1.504;2023-07-08T12:31:37;9.13;;;3.92;;
78402;SDS011;67687;43.508;1.504;2023-07-08T12:34:04;8.23;;;4.30;;
78402;SDS011;67687;43.508;1.504;2023-07-08T12:36:33;8.23;;;4.60;;
78402;SDS011;67687;43.508;1.504;2023-07-08T12:39:00;9.25;;;4.53;;
78402;SDS011;67687;43.508;1.504;2023-07-08T12:41:29;8.35;;;4.10;;
78402;SDS011;67687;43.508;1.504;2023-07-08T12:43:59;10.27;;;4.65;;
78402;SDS011;67687;43.508;1.504;2023-07-08T12:46:26;9.43;;;4.23;;
78402;SDS011;67687;43.508;1.504;2023-07-08T12:48:54;9.05;;;4.60;;
78402;SDS011;67687;43.508;1.504;2023-07-08T12:51:22;8.18;;;3.80;;
78402;SDS011;67687;43.508;1.504;2023-07-08T12:53:52;8.88;;;4.88;;
78402;SDS011;67687;43.508;1.504;2023-07-08T12:56:20;7.38;;;4.30;;
78402;SDS011;67687;43.508;1.504;2023-07-08T12:58:48;8.27;;;4.30;;
78402;SDS011;67687;43.508;1.504;2023-07-08T13:01:19;10.35;;;4.80;;
78402;SDS011;67687;43.508;1.504;2023-07-08T13:03:47;8.25;;;4.20;;
78402;SDS011;67687;43.508;1.504;2023-07-08T13:06:17;10.55;;;4.72;;
78402;SDS011;67687;43.508;1.504;2023-07-08T13:08:48;9.10;;;4.43;;
78402;SDS011;67687;43.508;1.504;2023-07-08T13:11:15;10.33;;;4.47;;
78402;SDS011;67687;43.508;1.504;2023-07-08T13:13:44;9.48;;;4.25;;
78402;SDS011;67687;43.508;1.504;2023-07-08T13:16:13;7.35;;;4.10;;
78402;SDS011;67687;43.508;1.504;2023-07-08T13:18:41;9.43;;;4.65;;
78402;SDS011;67687;43.508;1.504;2023-07-08T13:21:10;8.43;;;4.18;;
78402;SDS011;67687;43.508;1.504;2023-07-08T13:23:38;6.83;;;3.83;;
78402;SDS011;67687;43.508;1.504;2023-07-08T13:26:11;10.65;;;4.57;;
78402;SDS011;67687;43.508;1.504;2023-07-08T13:28:39;8.95;;;4.20;;
78402;SDS011;67687;43.508;1.504;2023-07-08T13:31:13;8.38;;;4.15;;
78402;SDS011;67687;43.508;1.504;2023-07-08T13:33:44;10.57;;;4.55;;
78402;SDS011;67687;43.508;1.504;2023-07-08T13:36:12;8.23;;;4.60;;
78402;SDS011;67687;43.508;1.504;2023-07-08T13:38:40;8.63;;;4.45;;
78402;SDS011;67687;43.508;1.504;2023-07-08T13:41:07;8.45;;;4.45;;
78402;SDS011;67687;43.508;1.504;2023-07-08T13:43:35;7.32;;;4.38;;
78402;SDS011;67687;43.508;1.504;2023-07-08T13:46:04;7.57;;;4.03;;
78402;SDS011;67687;43.508;1.504;2023-07-08T13:48:34;8.03;;;4.30;;
78402;SDS011;67687;43.508;1.504;2023-07-08T13:51:06;8.82;;;3.97;;
78402;SDS011;67687;43.508;1.504;2023-07-08T13:53:40;7.50;;;4.53;;
78402;SDS011;67687;43.508;1.504;2023-07-08T13:56:11;7.53;;;4.45;;
78402;SDS011;67687;43.508;1.504;2023-07-08T13:58:41;7.32;;;4.72;;
78402;SDS011;67687;43.508;1.504;2023-07-08T14:01:10;7.60;;;4.53;;
78402;SDS011;67687;43.508;1.504;2023-07-08T14:03:41;8.07;;;4.25;;
78402;SDS011;67687;43.508;1.504;2023-07-08T14:06:12;6.55;;;4.30;;
78402;SDS011;67687;43.508;1.504;2023-07-08T14:08:40;10.20;;;4.13;;
78402;SDS011;67687;43.508;1.504;2023-07-08T14:11:07;7.45;;;4.47;;
78402;SDS011;67687;43.508;1.504;2023-07-08T14:13:34;7.20;;;4.50;;
78402;SDS011;67687;43.508;1.504;2023-07-08T14:16:00;8.00;;;4.40;;
78402;SDS011;67687;43.508;1.504;2023-07-08T14:18:28;10.07;;;4.70;;
78402;SDS011;67687;43.508;1.504;2023-07-08T14:20:55;8.48;;;4.03;;
78402;SDS011;67687;43.508;1.504;2023-07-08T14:23:23;7.78;;;4.07;;
78402;SDS011;67687;43.508;1.504;2023-07-08T14:25:50;6.40;;;4.37;;
78402;SDS011;67687;43.508;1.504;2023-07-08T14:28:16;6.65;;;4.05;;
78402;SDS011;67687;43.508;1.504;2023-07-08T14:30:44;5.88;;;3.90;;
78402;SDS011;67687;43.508;1.504;2023-07-08T14:33:12;8.45;;;3.90;;
78402;SDS011;67687;43.508;1.504;2023-07-08T14:35:39;6.90;;;3.95;;
78402;SDS011;67687;43.508;1.504;2023-07-08T14:38:08;8.80;;;4.27;;
78402;SDS011;67687;43.508;1.504;2023-07-08T14:40:38;6.93;;;4.38;;
78402;SDS011;67687;43.508;1.504;2023-07-08T14:43:06;8.02;;;4.25;;
78402;SDS011;67687;43.508;1.504;2023-07-08T14:45:38;8.45;;;4.20;;
78402;SDS011;67687;43.508;1.504;2023-07-08T14:48:07;6.80;;;4.20;;
78402;SDS011;67687;43.508;1.504;2023-07-08T14:50:34;9.13;;;4.40;;
78402;SDS011;67687;43.508;1.504;2023-07-08T14:53:01;6.28;;;4.32;;